Terminal Aerodrome Forecast
Issued by NWS

Current Version | Previous Version | Graphics & Text | Print | Product List | Glossary On
Versions: 1 2 3 4 5 6 7 8 9 10 11 12 13 14 15 16
050
FTUS41 KPBZ 260520
TAFMGW
TAF
KMGW 260520Z 2606/2706 22003KT P6SM SCT090
     FM261900 25009KT P6SM BKN090
     FM270200 24004KT P6SM SCT250=

USA.gov is the U.S. government's official web portal to all federal, state and local government web resources and services.